sensor_id;sensor_type;location;lat;lon;timestamp;pressure;altitude;pressure_sealevel;temperature;humidity
73105;BME280;61296;50.526;30.792;2023-09-08T00:01:26;100525.25;;;14.02;54.74
73105;BME280;61296;50.526;30.792;2023-09-08T00:16:45;100544.63;;;14.02;55.22
73105;BME280;61296;50.526;30.792;2023-09-08T00:32:04;100545.53;;;13.83;56.05
73105;BME280;61296;50.526;30.792;2023-09-08T00:47:23;100443.28;;;13.08;56.47
73105;BME280;61296;50.526;30.792;2023-09-08T01:02:42;100444.44;;;13.07;56.94
73105;BME280;61296;50.526;30.792;2023-09-08T01:18:04;100543.03;;;13.75;56.82
73105;BME280;61296;50.526;30.792;2023-09-08T01:33:23;100518.34;;;13.63;56.88
73105;BME280;61296;50.526;30.792;2023-09-08T01:48:43;100545.31;;;13.69;57.73
73105;BME280;61296;50.526;30.792;2023-09-08T02:04:02;100536.34;;;13.76;57.38
73105;BME280;61296;50.526;30.792;2023-09-08T02:19:22;100530.19;;;13.86;57.30
73105;BME280;61296;50.526;30.792;2023-09-08T02:34:42;100522.56;;;13.79;56.94
73105;BME280;61296;50.526;30.792;2023-09-08T02:50:02;100488.66;;;13.56;56.79
73105;BME280;61296;50.526;30.792;2023-09-08T03:05:26;100524.75;;;13.67;57.80
73105;BME280;61296;50.526;30.792;2023-09-08T03:20:48;100476.28;;;13.46;57.88
73105;BME280;61296;50.526;30.792;2023-09-08T03:36:09;100520.84;;;13.98;57.06
73105;BME280;61296;50.526;30.792;2023-09-08T03:51:29;100472.50;;;13.58;57.32
73105;BME280;61296;50.526;30.792;2023-09-08T04:06:48;100508.50;;;13.92;57.07
73105;BME280;61296;50.526;30.792;2023-09-08T04:22:07;100507.16;;;14.08;56.40
73105;BME280;61296;50.526;30.792;2023-09-08T04:37:27;100510.28;;;14.37;55.99
73105;BME280;61296;50.526;30.792;2023-09-08T04:52:46;100497.78;;;14.84;55.83
73105;BME280;61296;50.526;30.792;2023-09-08T05:08:06;100499.63;;;15.61;56.20
73105;BME280;61296;50.526;30.792;2023-09-08T05:23:25;100471.16;;;16.62;57.63
73105;BME280;61296;50.526;30.792;2023-09-08T05:38:45;100465.50;;;18.15;55.75
73105;BME280;61296;50.526;30.792;2023-09-08T05:54:04;100489.03;;;18.80;56.21
73105;BME280;61296;50.526;30.792;2023-09-08T06:09:23;100448.88;;;18.74;55.54
73105;BME280;61296;50.526;30.792;2023-09-08T06:24:44;100430.94;;;18.75;53.82
73105;BME280;61296;50.526;30.792;2023-09-08T06:40:04;100466.28;;;19.41;50.86
73105;BME280;61296;50.526;30.792;2023-09-08T06:55:25;100391.50;;;19.25;48.14
73105;BME280;61296;50.526;30.792;2023-09-08T07:10:45;100412.97;;;19.69;45.96
73105;BME280;61296;50.526;30.792;2023-09-08T07:26:10;100429.59;;;19.80;46.38
73105;BME280;61296;50.526;30.792;2023-09-08T07:41:29;100443.53;;;19.83;46.73
73105;BME280;61296;50.526;30.792;2023-09-08T07:56:49;100382.38;;;19.62;47.02
73105;BME280;61296;50.526;30.792;2023-09-08T08:12:07;100350.25;;;19.81;41.96
73105;BME280;61296;50.526;30.792;2023-09-08T08:27:26;100377.03;;;20.63;39.10
73105;BME280;61296;50.526;30.792;2023-09-08T08:42:46;100342.50;;;20.50;39.22
73105;BME280;61296;50.526;30.792;2023-09-08T08:58:06;100344.91;;;20.21;39.99
73105;BME280;61296;50.526;30.792;2023-09-08T09:13:25;100300.91;;;19.74;40.85
73105;BME280;61296;50.526;30.792;2023-09-08T09:28:48;100291.59;;;20.11;40.52
73105;BME280;61296;50.526;30.792;2023-09-08T09:44:11;100268.16;;;20.05;40.23
73105;BME280;61296;50.526;30.792;2023-09-08T09:59:30;100301.09;;;20.41;40.72
73105;BME280;61296;50.526;30.792;2023-09-08T10:14:51;100272.91;;;20.32;40.43
73105;BME280;61296;50.526;30.792;2023-09-08T10:30:13;100276.84;;;20.61;39.91
73105;BME280;61296;50.526;30.792;2023-09-08T10:45:33;100242.34;;;20.48;39.05
73105;BME280;61296;50.526;30.792;2023-09-08T11:00:53;100198.44;;;20.49;37.50
73105;BME280;61296;50.526;30.792;2023-09-08T11:16:15;100198.56;;;20.85;37.65
73105;BME280;61296;50.526;30.792;2023-09-08T11:31:36;100176.47;;;21.30;36.39
73105;BME280;61296;50.526;30.792;2023-09-08T11:46:55;100179.91;;;21.38;35.33
73105;BME280;61296;50.526;30.792;2023-09-08T12:02:20;100173.66;;;21.66;35.16
73105;BME280;61296;50.526;30.792;2023-09-08T12:17:49;100111.13;;;21.73;34.82
73105;BME280;61296;50.526;30.792;2023-09-08T12:33:10;100115.84;;;22.08;34.04
73105;BME280;61296;50.526;30.792;2023-09-08T12:48:29;100107.72;;;22.14;33.28
73105;BME280;61296;50.526;30.792;2023-09-08T13:03:49;100059.53;;;22.19;34.03
73105;BME280;61296;50.526;30.792;2023-09-08T13:19:08;100015.72;;;22.12;33.95
73105;BME280;61296;50.526;30.792;2023-09-08T13:34:27;100009.66;;;22.14;33.96
73105;BME280;61296;50.526;30.792;2023-09-08T13:49:46;100011.53;;;22.33;34.13
73105;BME280;61296;50.526;30.792;2023-09-08T14:05:06;100011.31;;;22.40;33.40
73105;BME280;61296;50.526;30.792;2023-09-08T14:20:25;99967.34;;;21.96;33.35
73105;BME280;61296;50.526;30.792;2023-09-08T14:35:44;99948.94;;;22.11;33.08
73105;BME280;61296;50.526;30.792;2023-09-08T14:51:04;99914.69;;;21.90;33.56
73105;BME280;61296;50.526;30.792;2023-09-08T15:06:24;99915.69;;;21.97;33.39
73105;BME280;61296;50.526;30.792;2023-09-08T15:21:43;99876.28;;;21.62;34.11
73105;BME280;61296;50.526;30.792;2023-09-08T15:37:03;99850.72;;;21.47;34.58
73105;BME280;61296;50.526;30.792;2023-09-08T15:52:22;99918.41;;;21.71;35.57
73105;BME280;61296;50.526;30.792;2023-09-08T16:07:41;99872.00;;;21.28;36.78
73105;BME280;61296;50.526;30.792;2023-09-08T16:23:01;99889.63;;;21.25;37.77
73105;BME280;61296;50.526;30.792;2023-09-08T16:38:22;99863.91;;;20.85;38.84
73105;BME280;61296;50.526;30.792;2023-09-08T16:53:41;99894.53;;;20.72;39.71
73105;BME280;61296;50.526;30.792;2023-09-08T17:09:00;99845.50;;;19.99;41.18
73105;BME280;61296;50.526;30.792;2023-09-08T17:24:19;99866.28;;;19.78;42.00
73105;BME280;61296;50.526;30.792;2023-09-08T17:39:38;99833.38;;;19.26;43.25
73105;BME280;61296;50.526;30.792;2023-09-08T17:54:57;99859.13;;;19.34;43.23
73105;BME280;61296;50.526;30.792;2023-09-08T18:10:20;99865.00;;;19.20;43.95
73105;BME280;61296;50.526;30.792;2023-09-08T18:25:39;99843.78;;;18.79;44.88
73105;BME280;61296;50.526;30.792;2023-09-08T18:40:58;99857.19;;;18.61;46.15
73105;BME280;61296;50.526;30.792;2023-09-08T18:56:18;99793.13;;;17.83;47.43
73105;BME280;61296;50.526;30.792;2023-09-08T19:11:37;99862.09;;;17.96;48.69
73105;BME280;61296;50.526;30.792;2023-09-08T19:26:56;99804.81;;;17.34;50.16
73105;BME280;61296;50.526;30.792;2023-09-08T19:42:15;99815.25;;;17.22;51.06
73105;BME280;61296;50.526;30.792;2023-09-08T19:57:36;99826.38;;;17.22;52.08
73105;BME280;61296;50.526;30.792;2023-09-08T20:12:55;99795.47;;;16.76;53.53
73105;BME280;61296;50.526;30.792;2023-09-08T20:28:14;99790.88;;;16.55;54.85
73105;BME280;61296;50.526;30.792;2023-09-08T20:43:33;99813.91;;;16.52;55.58
73105;BME280;61296;50.526;30.792;2023-09-08T20:58:53;99821.56;;;16.37;56.27
73105;BME280;61296;50.526;30.792;2023-09-08T21:14:12;99749.44;;;15.74;57.09
73105;BME280;61296;50.526;30.792;2023-09-08T21:29:31;99751.81;;;15.69;58.04
73105;BME280;61296;50.526;30.792;2023-09-08T21:44:50;99741.16;;;15.67;58.69
73105;BME280;61296;50.526;30.792;2023-09-08T22:00:09;99736.03;;;15.55;59.50
73105;BME280;61296;50.526;30.792;2023-09-08T22:15:34;99787.03;;;15.79;60.29
73105;BME280;61296;50.526;30.792;2023-09-08T22:30:53;99769.28;;;15.66;60.73
73105;BME280;61296;50.526;30.792;2023-09-08T22:46:12;99687.50;;;15.18;61.65
73105;BME280;61296;50.526;30.792;2023-09-08T23:01:32;99746.75;;;15.42;63.39
73105;BME280;61296;50.526;30.792;2023-09-08T23:16:51;99744.03;;;15.31;64.39
73105;BME280;61296;50.526;30.792;2023-09-08T23:32:10;99718.44;;;15.06;65.71
73105;BME280;61296;50.526;30.792;2023-09-08T23:47:30;99746.84;;;15.28;66.87
